Time;durP1;ratioP1;P1;durP2;ratioP2;P2;SDS_P1;SDS_P2;PMS_P1;PMS_P2;Temp;Humidity;BMP_temperature;BMP_pressure;BME280_temperature;BME280_humidity;BME280_pressure;Samples;Min_cycle;Max_cycle;Signal;HPM_P1;HPM_P2
2023/04/01 00:01:46;;;;;;;4.30;1.20;;;;;;;9.79;99.83;98773.92;105788;1256;61671;-74
2023/04/01 00:04:13;;;;;;;5.30;1.10;;;;;;;9.79;99.97;98773.88;105424;1254;73790;-70
2023/04/01 00:06:40;;;;;;;3.30;1.30;;;;;;;9.81;99.97;98779.23;105584;1260;71217;-72
2023/04/01 00:09:07;;;;;;;5.50;1.30;;;;;;;9.83;99.90;98776.02;105442;1258;72748;-72
2023/04/01 00:11:34;;;;;;;5.50;1.40;;;;;;;9.84;99.79;98781.14;105779;1257;61640;-72
2023/04/01 00:14:01;;;;;;;6.30;1.20;;;;;;;9.85;99.74;98777.76;105793;1258;61356;-71
2023/04/01 00:16:27;;;;;;;6.00;1.30;;;;;;;9.85;99.71;98776.27;105542;1254;74186;-71
2023/04/01 00:18:54;;;;;;;3.90;1.20;;;;;;;9.84;99.69;98776.90;105914;1254;70359;-71
2023/04/01 00:21:22;;;;;;;5.50;1.40;;;;;;;9.83;99.55;98774.27;105449;1256;72375;-73
2023/04/01 00:23:50;;;;;;;5.30;1.30;;;;;;;9.82;99.52;98773.17;105722;1256;61766;-71
2023/04/01 00:26:20;;;;;;;6.60;1.20;;;;;;;9.81;99.47;98773.23;105771;1257;61332;-70
2023/04/01 00:28:48;;;;;;;5.90;1.30;;;;;;;9.80;99.47;98774.07;105481;1261;73667;-72
2023/04/01 00:31:15;;;;;;;4.60;1.10;;;;;;;9.79;99.13;98774.37;105593;1258;71259;-71
2023/04/01 00:33:42;;;;;;;5.10;1.40;;;;;;;9.78;98.98;98771.73;105729;1260;71645;-73
2023/04/01 00:36:15;;;;;;;5.10;1.40;;;;;;;9.76;98.83;98774.06;105543;1256;62356;-72
2023/04/01 00:38:43;;;;;;;6.70;1.20;;;;;;;9.76;98.76;98771.14;105521;1258;62250;-72
2023/04/01 00:41:14;;;;;;;4.80;1.10;;;;;;;9.74;98.75;98773.23;105765;1253;74748;-72
2023/04/01 00:43:42;;;;;;;5.30;1.30;;;;;;;9.73;98.70;98771.95;106065;1257;71314;-73
2023/04/01 00:46:09;;;;;;;4.20;1.10;;;;;;;9.72;98.94;98772.77;105981;1256;71521;-71
2023/04/01 00:48:39;;;;;;;3.60;1.10;;;;;;;9.73;98.85;98773.04;105847;1253;62423;-70
2023/04/01 00:51:15;;;;;;;4.80;1.10;;;;;;;9.72;99.03;98772.65;105923;1257;61352;-73
2023/04/01 00:53:46;;;;;;;4.40;1.00;;;;;;;9.69;99.28;98771.77;105657;1254;73144;-75
2023/04/01 00:56:32;;;;;;;5.70;1.20;;;;;;;9.66;99.29;98777.45;105835;1255;70631;-73
2023/04/01 00:59:08;;;;;;;3.20;1.20;;;;;;;9.66;99.55;98778.80;105612;1254;72650;-75
2023/04/01 01:01:35;;;;;;;5.60;1.10;;;;;;;9.64;99.88;98777.52;105781;1254;61241;-70
2023/04/01 01:04:03;;;;;;;4.00;1.00;;;;;;;9.63;99.83;98781.84;105859;1256;61235;-72
2023/04/01 01:06:56;;;;;;;6.30;1.90;;;;;;;9.62;99.95;98778.67;105759;1258;73212;-71
2023/04/01 01:09:26;;;;;;;5.00;1.30;;;;;;;9.61;99.99;98777.54;105819;1258;71213;-71
2023/04/01 01:12:18;;;;;;;3.50;1.00;;;;;;;9.59;100.00;98779.18;105727;1257;72700;-71
2023/04/01 01:14:57;;;;;;;3.40;0.80;;;;;;;9.57;100.00;98779.23;105600;1260;62050;-70
2023/04/01 01:17:55;;;;;;;5.60;1.10;;;;;;;9.56;100.00;98774.73;105801;1257;61717;-70
2023/04/01 01:20:28;;;;;;;4.70;1.30;;;;;;;9.54;100.00;98773.23;105817;1254;73449;-72
2023/04/01 01:22:57;;;;;;;2.70;0.80;;;;;;;9.53;100.00;98773.40;105765;1257;68803;-70
2023/04/01 01:25:53;;;;;;;4.20;1.10;;;;;;;9.51;100.00;98774.20;105787;1260;73700;-71
2023/04/01 01:28:30;;;;;;;3.80;1.20;;;;;;;9.49;100.00;98772.69;105969;1254;61756;-69
2023/04/01 01:31:20;;;;;;;3.30;0.80;;;;;;;9.47;100.00;98772.63;105864;1254;61688;-71
2023/04/01 01:34:11;;;;;;;4.30;1.00;;;;;;;9.44;100.00;98777.25;105713;1257;74478;-71
2023/04/01 01:36:42;;;;;;;4.20;0.90;;;;;;;9.43;100.00;98781.30;105761;1255;71187;-75
2023/04/01 01:39:13;;;;;;;4.30;1.20;;;;;;;9.42;100.00;98778.25;105518;1259;72656;-71
2023/04/01 01:41:42;;;;;;;5.80;1.10;;;;;;;9.42;100.00;98778.17;105510;1260;61418;-70
2023/04/01 01:44:13;;;;;;;3.40;1.10;;;;;;;9.40;100.00;98780.31;105837;1254;61352;-70
2023/04/01 01:46:42;;;;;;;3.00;0.80;;;;;;;9.38;100.00;98773.31;105856;1256;73372;-72
2023/04/01 01:49:13;;;;;;;5.40;1.00;;;;;;;9.38;100.00;98774.57;105517;1260;71006;-71
2023/04/01 01:51:42;;;;;;;4.20;0.80;;;;;;;9.37;100.00;98777.34;106009;1257;73885;-71
2023/04/01 01:54:14;;;;;;;3.40;0.80;;;;;;;9.36;100.00;98780.45;105746;1254;61300;-72
2023/04/01 01:56:45;;;;;;;4.10;1.00;;;;;;;9.36;100.00;98780.81;105648;1259;61247;-72
2023/04/01 01:59:14;;;;;;;3.20;0.80;;;;;;;9.35;100.00;98781.10;105786;1257;73918;-70
2023/04/01 02:01:45;;;;;;;2.60;0.60;;;;;;;9.35;100.00;98779.88;105837;1257;70892;-72
2023/04/01 02:04:14;;;;;;;3.80;0.70;;;;;;;9.34;100.00;98781.69;105786;1256;72779;-73
2023/04/01 02:06:52;;;;;;;1.80;0.50;;;;;;;9.33;100.00;98780.30;105856;1253;61597;-74
2023/04/01 02:09:20;;;;;;;2.90;0.60;;;;;;;9.33;100.00;98782.73;105751;1256;61216;-71
2023/04/01 02:11:56;;;;;;;3.00;0.60;;;;;;;9.34;100.00;98783.59;105828;1252;73116;-72
2023/04/01 02:14:26;;;;;;;2.20;0.60;;;;;;;9.34;100.00;98782.00;105522;1254;70624;-71
2023/04/01 02:17:08;;;;;;;2.60;0.70;;;;;;;9.34;100.00;98782.37;105744;1254;71406;-72
2023/04/01 02:20:00;;;;;;;1.90;0.50;;;;;;;9.34;100.00;98781.06;105613;1254;62488;-75
2023/04/01 02:22:31;;;;;;;2.80;0.70;;;;;;;9.34;100.00;98783.75;105733;1254;61354;-73
2023/04/01 02:25:02;;;;;;;2.70;0.60;;;;;;;9.34;100.00;98785.86;105650;1259;73318;-72
2023/04/01 02:27:30;;;;;;;3.10;0.90;;;;;;;9.34;100.00;98785.02;105868;1254;70918;-71
2023/04/01 02:29:58;;;;;;;2.80;0.60;;;;;;;9.34;100.00;98785.66;105752;1257;71978;-76
2023/04/01 02:32:26;;;;;;;2.00;0.60;;;;;;;9.33;100.00;98789.98;105843;1254;61273;-70
2023/04/01 02:34:54;;;;;;;2.50;0.70;;;;;;;9.32;100.00;98787.23;105836;1258;61173;-73
2023/04/01 02:37:21;;;;;;;3.90;0.80;;;;;;;9.30;100.00;98793.38;105678;1255;73156;-72
2023/04/01 02:39:48;;;;;;;2.80;0.70;;;;;;;9.30;100.00;98793.51;105694;1255;70890;-75
2023/04/01 02:42:14;;;;;;;2.70;0.60;;;;;;;9.30;100.00;98788.55;105441;1258;72421;-73
2023/04/01 02:44:41;;;;;;;1.80;0.60;;;;;;;9.29;100.00;98789.85;105747;1255;61365;-71
2023/04/01 02:47:08;;;;;;;3.20;0.80;;;;;;;9.29;100.00;98793.39;105462;1253;61258;-73
2023/04/01 02:49:35;;;;;;;2.70;0.80;;;;;;;9.30;100.00;98793.52;105842;1254;73082;-71
2023/04/01 02:52:01;;;;;;;2.50;0.60;;;;;;;9.31;100.00;98795.09;105675;1257;70072;-73
2023/04/01 02:54:28;;;;;;;2.50;0.60;;;;;;;9.33;100.00;98797.89;105487;1257;72465;-71
2023/04/01 02:56:54;;;;;;;3.00;0.70;;;;;;;9.32;100.00;98798.83;105449;1260;61273;-71
2023/04/01 02:59:21;;;;;;;2.90;0.70;;;;;;;9.33;100.00;98794.64;105745;1255;61235;-72
2023/04/01 03:01:48;;;;;;;3.30;1.00;;;;;;;9.33;100.00;98797.45;105748;1254;73451;-75
2023/04/01 03:04:14;;;;;;;2.70;0.50;;;;;;;9.32;100.00;98801.27;105856;1257;69935;-72
2023/04/01 03:06:41;;;;;;;3.30;0.50;;;;;;;9.31;100.00;98800.43;105753;1256;71212;-71
2023/04/01 03:09:08;;;;;;;3.10;0.70;;;;;;;9.29;100.00;98800.27;105482;1260;61220;-70
2023/04/01 03:11:35;;;;;;;2.40;0.60;;;;;;;9.29;100.00;98800.67;105732;1254;61456;-71
2023/04/01 03:14:02;;;;;;;2.40;0.90;;;;;;;9.29;100.00;98800.52;105757;1253;74458;-71
2023/04/01 03:16:28;;;;;;;3.80;0.70;;;;;;;9.29;100.00;98800.27;105642;1259;70156;-71
2023/04/01 03:18:58;;;;;;;2.30;0.70;;;;;;;9.30;100.00;98795.27;105755;1254;71208;-74
2023/04/01 03:21:25;;;;;;;3.40;0.70;;;;;;;9.30;100.00;98796.64;105808;1257;62213;-72
2023/04/01 03:23:52;;;;;;;2.80;0.60;;;;;;;9.29;100.00;98798.20;105768;1254;61341;-72
2023/04/01 03:26:18;;;;;;;2.70;0.70;;;;;;;9.26;100.00;98798.41;105628;1256;61336;-71
2023/04/01 03:28:45;;;;;;;2.80;0.70;;;;;;;9.24;100.00;98800.17;105719;1257;71163;-70
2023/04/01 03:31:12;;;;;;;1.90;0.70;;;;;;;9.21;100.00;98800.36;105681;1257;71420;-72
2023/04/01 03:33:39;;;;;;;2.80;0.80;;;;;;;9.19;100.00;98800.34;105417;1254;61392;-75
2023/04/01 03:36:07;;;;;;;3.50;0.90;;;;;;;9.18;100.00;98800.64;105616;1258;61535;-75
2023/04/01 03:38:35;;;;;;;3.10;0.60;;;;;;;9.18;100.00;98799.33;105774;1254;74708;-71
2023/04/01 03:41:02;;;;;;;2.20;0.80;;;;;;;9.18;100.00;98804.30;105711;1260;68711;-71
2023/04/01 03:43:29;;;;;;;2.20;0.70;;;;;;;9.17;100.00;98805.06;105806;1254;71130;-70
2023/04/01 03:45:57;;;;;;;3.00;0.80;;;;;;;9.17;100.00;98804.50;105585;1253;62336;-73
2023/04/01 03:48:25;;;;;;;2.20;0.80;;;;;;;9.15;100.00;98806.46;105762;1254;61222;-73
2023/04/01 03:50:52;;;;;;;2.90;0.70;;;;;;;9.14;100.00;98807.69;105855;1254;74938;-71
2023/04/01 03:53:19;;;;;;;2.90;0.70;;;;;;;9.11;100.00;98807.86;105825;1254;71715;-74
2023/04/01 03:55:46;;;;;;;3.40;0.90;;;;;;;9.10;100.00;98807.30;105816;1258;72504;-73
2023/04/01 03:58:13;;;;;;;4.00;0.90;;;;;;;9.10;100.00;98808.89;105953;1254;61213;-71
2023/04/01 04:00:40;;;;;;;2.80;0.80;;;;;;;9.09;100.00;98807.67;105904;1253;61225;-71
2023/04/01 04:03:07;;;;;;;2.60;0.70;;;;;;;9.08;100.00;98812.08;105900;1254;73790;-71
2023/04/01 04:05:34;;;;;;;2.40;0.90;;;;;;;9.06;100.00;98810.02;105820;1254;71268;-72
2023/04/01 04:08:02;;;;;;;4.00;0.80;;;;;;;9.05;100.00;98810.59;105725;1254;71824;-71
2023/04/01 04:10:29;;;;;;;4.00;0.90;;;;;;;9.04;100.00;98811.61;105590;1254;61258;-72
2023/04/01 04:12:56;;;;;;;3.70;0.90;;;;;;;9.02;100.00;98814.63;105596;1260;62188;-72
2023/04/01 04:15:23;;;;;;;2.70;1.00;;;;;;;9.01;100.00;98817.64;105562;1256;74711;-71
2023/04/01 04:17:50;;;;;;;2.80;0.90;;;;;;;9.01;100.00;98813.77;105737;1252;72599;-72
2023/04/01 04:20:17;;;;;;;3.40;0.80;;;;;;;9.01;100.00;98817.80;105704;1254;71578;-74
2023/04/01 04:22:43;;;;;;;2.30;1.00;;;;;;;9.01;100.00;98817.64;105564;1254;61338;-72
2023/04/01 04:25:13;;;;;;;3.80;0.90;;;;;;;9.01;100.00;98818.08;105891;1257;61327;-71
2023/04/01 04:27:40;;;;;;;2.70;0.90;;;;;;;9.02;100.00;98815.48;105557;1259;74680;-72
2023/04/01 04:30:08;;;;;;;2.00;0.80;;;;;;;9.04;100.00;98820.97;105659;1254;70427;-74
2023/04/01 04:32:35;;;;;;;3.60;0.90;;;;;;;9.04;100.00;98818.20;105798;1253;71202;-73
2023/04/01 04:35:01;;;;;;;4.70;0.90;;;;;;;9.06;100.00;98818.15;105740;1253;61379;-70
2023/04/01 04:37:28;;;;;;;2.50;1.20;;;;;;;9.07;100.00;98821.86;105693;1253;61339;-73
2023/04/01 04:39:55;;;;;;;2.80;0.80;;;;;;;9.08;100.00;98823.19;105737;1254;61373;-71
2023/04/01 04:42:21;;;;;;;2.90;0.80;;;;;;;9.08;100.00;98824.52;105796;1254;70960;-70
2023/04/01 04:44:48;;;;;;;3.70;0.90;;;;;;;9.10;100.00;98828.22;105722;1257;71286;-70
2023/04/01 04:47:15;;;;;;;3.60;0.90;;;;;;;9.12;100.00;98825.77;105902;1255;61846;-73
2023/04/01 04:49:41;;;;;;;3.00;0.80;;;;;;;9.13;100.00;98827.80;105763;1254;61243;-71
2023/04/01 04:52:08;;;;;;;2.40;1.10;;;;;;;9.13;100.00;98826.70;105679;1254;74365;-75
2023/04/01 04:54:35;;;;;;;3.20;0.80;;;;;;;9.12;100.00;98829.47;105686;1257;71556;-71
2023/04/01 04:57:02;;;;;;;2.80;0.70;;;;;;;9.12;100.00;98833.59;105796;1254;72874;-71
2023/04/01 04:59:28;;;;;;;4.20;0.90;;;;;;;9.11;100.00;98835.79;105659;1252;61295;-74
2023/04/01 05:01:55;;;;;;;2.10;0.90;;;;;;;9.10;100.00;98836.48;105761;1257;61196;-70
2023/04/01 05:04:22;;;;;;;2.80;0.80;;;;;;;9.08;100.00;98841.13;105662;1254;73519;-71
2023/04/01 05:06:49;;;;;;;3.00;0.80;;;;;;;9.05;100.00;98838.38;105697;1258;69954;-74
2023/04/01 05:09:16;;;;;;;4.70;1.00;;;;;;;9.04;100.00;98841.92;105705;1257;71876;-71
2023/04/01 05:11:42;;;;;;;2.60;0.70;;;;;;;9.03;100.00;98843.48;105622;1260;61248;-70
2023/04/01 05:14:16;;;;;;;4.30;1.20;;;;;;;9.01;100.00;98845.43;105715;1257;61435;-71
2023/04/01 05:16:43;;;;;;;1.90;0.90;;;;;;;9.00;100.00;98850.15;105831;1254;74865;-71
2023/04/01 05:19:09;;;;;;;4.30;1.00;;;;;;;9.01;100.00;98844.81;105765;1253;70011;-71
2023/04/01 05:21:36;;;;;;;2.80;1.20;;;;;;;9.01;100.00;98848.32;105816;1254;72704;-73
2023/04/01 05:24:07;;;;;;;3.00;1.00;;;;;;;9.01;100.00;98850.03;105794;1254;61952;-71
2023/04/01 05:26:34;;;;;;;4.20;1.40;;;;;;;9.02;100.00;98849.46;105862;1257;61210;-75
2023/04/01 05:29:01;;;;;;;3.40;1.10;;;;;;;9.02;100.00;98849.05;105570;1260;74377;-72
2023/04/01 05:31:28;;;;;;;4.70;1.20;;;;;;;9.02;100.00;98850.76;105733;1254;70183;-74
2023/04/01 05:33:55;;;;;;;3.90;1.10;;;;;;;9.02;100.00;98854.63;105745;1254;73326;-72
2023/04/01 05:36:22;;;;;;;3.80;1.50;;;;;;;9.04;100.00;98855.30;105394;1254;693950;-72
2023/04/01 05:38:50;;;;;;;4.60;1.40;;;;;;;9.06;100.00;98858.67;105737;1254;61379;-72
2023/04/01 05:41:16;;;;;;;3.20;1.20;;;;;;;9.08;100.00;98856.05;105810;1254;74879;-73
2023/04/01 05:43:43;;;;;;;3.20;1.10;;;;;;;9.11;100.00;98856.95;105937;1257;62275;-71
2023/04/01 05:46:10;;;;;;;2.60;1.30;;;;;;;9.14;100.00;98857.41;105830;1253;61208;-70
2023/04/01 05:48:37;;;;;;;3.20;1.30;;;;;;;9.16;100.00;98857.98;105790;1254;61309;-74
2023/04/01 05:51:04;;;;;;;4.20;1.60;;;;;;;9.18;100.00;98861.23;105874;1257;61347;-71
2023/04/01 05:53:31;;;;;;;3.70;1.10;;;;;;;9.21;100.00;98862.52;105863;1255;73437;-70
2023/04/01 05:56:03;;;;;;;3.60;1.20;;;;;;;9.23;100.00;98866.20;105768;1257;71006;-71
2023/04/01 05:58:42;;;;;;;;;;;;;;;;;;;;;
2023/04/01 06:01:18;;;;;;;3.80;1.10;;;;;;;9.32;100.00;98866.69;105678;1256;61275;-74
2023/04/01 06:03:45;;;;;;;3.00;1.20;;;;;;;9.36;100.00;98868.09;105749;1254;61350;-71
2023/04/01 06:06:23;;;;;;;4.90;1.10;;;;;;;9.41;100.00;98866.44;105782;1254;73577;-73
2023/04/01 06:08:49;;;;;;;3.90;1.20;;;;;;;9.47;100.00;98869.86;105850;1253;70736;-73
2023/04/01 06:11:28;;;;;;;4.10;1.20;;;;;;;9.53;100.00;98868.83;105776;1253;71257;-71
2023/04/01 06:14:10;;;;;;;3.70;1.10;;;;;;;9.59;100.00;98873.58;105829;1254;61334;-72
2023/04/01 06:16:57;;;;;;;3.50;1.20;;;;;;;9.65;100.00;98871.18;105779;1257;61107;-74
2023/04/01 06:19:41;;;;;;;3.40;1.10;;;;;;;9.72;100.00;98873.54;105634;1254;73841;-70
2023/04/01 06:22:22;;;;;;;4.20;1.20;;;;;;;9.81;100.00;98877.10;105725;1254;69667;-70
2023/04/01 06:25:12;;;;;;;3.10;1.10;;;;;;;9.89;100.00;98880.27;105778;1253;72652;-74
2023/04/01 06:28:09;;;;;;;4.10;1.20;;;;;;;9.97;100.00;98879.23;105735;1253;62062;-73
2023/04/01 06:30:57;;;;;;;2.60;1.10;;;;;;;10.08;100.00;98882.73;105663;1253;61341;-70
2023/04/01 06:33:34;;;;;;;2.90;1.20;;;;;;;10.18;100.00;98885.62;105786;1253;74458;-71
2023/04/01 06:36:20;;;;;;;4.00;1.30;;;;;;;10.27;100.00;98883.77;105763;1254;70636;-73
2023/04/01 06:39:02;;;;;;;3.40;1.40;;;;;;;10.35;100.00;98887.91;105753;1254;70608;-74
2023/04/01 06:42:08;;;;;;;4.30;1.40;;;;;;;10.44;100.00;98888.77;105568;1257;61214;-73
2023/04/01 06:45:07;;;;;;;2.50;1.30;;;;;;;10.54;100.00;98889.98;105624;1256;62549;-70
2023/04/01 06:51:57;;;;;;;4.90;1.80;;;;;;;10.76;99.83;98892.38;105987;1253;72495;-70
2023/04/01 06:54:47;;;;;;;7.00;2.40;;;;;;;10.83;99.32;98893.55;105963;1252;73430;-71
2023/04/01 06:57:41;;;;;;;5.10;2.60;;;;;;;10.91;99.10;98892.61;105692;1253;62216;-69
2023/04/01 07:00:27;;;;;;;2.70;1.40;;;;;;;10.96;98.21;98900.19;105772;1254;61862;-73
2023/04/01 07:03:16;;;;;;;4.00;1.60;;;;;;;11.03;98.11;98900.80;105830;1257;73420;-69
2023/04/01 07:05:43;;;;;;;4.80;1.30;;;;;;;11.10;97.90;98900.84;105811;1254;71227;-70
2023/04/01 07:08:15;;;;;;;3.40;1.60;;;;;;;11.15;97.47;98903.66;105639;1254;72760;-70
2023/04/01 07:11:01;;;;;;;3.40;1.30;;;;;;;11.21;97.24;98905.94;105787;1253;61463;-70
2023/04/01 07:13:44;;;;;;;2.80;1.30;;;;;;;11.28;96.51;98909.83;105780;1257;62235;-71
2023/04/01 07:16:16;;;;;;;2.30;1.20;;;;;;;11.34;96.62;98910.16;105694;1254;73240;-71
2023/04/01 07:18:53;;;;;;;4.60;1.10;;;;;;;11.41;96.51;98909.77;105728;1254;70967;-71
2023/04/01 07:21:41;;;;;;;4.80;1.30;;;;;;;11.49;95.67;98913.77;105735;1257;71170;-72
2023/04/01 07:24:20;;;;;;;3.40;1.40;;;;;;;11.57;95.44;98919.00;105877;1252;61196;-75
2023/04/01 07:26:52;;;;;;;2.40;0.80;;;;;;;11.68;95.48;98924.39;105800;1254;61178;-70
2023/04/01 07:29:19;;;;;;;3.00;1.00;;;;;;;11.71;93.65;98923.36;105751;1257;73429;-72
2023/04/01 07:31:48;;;;;;;3.90;1.00;;;;;;;11.77;93.97;98926.61;105849;1254;61716;-69
2023/04/01 07:34:30;;;;;;;2.90;0.90;;;;;;;11.84;93.96;98925.77;105845;1255;72860;-70
2023/04/01 07:37:08;;;;;;;3.00;1.00;;;;;;;11.90;93.70;98927.48;105757;1255;61830;-73
2023/04/01 07:40:11;;;;;;;4.60;0.90;;;;;;;11.97;93.95;98933.19;105949;1252;61215;-69
2023/04/01 07:43:00;;;;;;;3.80;1.10;;;;;;;12.00;92.69;98938.16;105910;1254;74740;-72
2023/04/01 07:45:51;;;;;;;3.40;0.90;;;;;;;11.99;91.03;98941.21;105831;1253;70836;-72
2023/04/01 07:49:00;;;;;;;4.90;1.20;;;;;;;12.01;91.12;98942.66;105654;1257;72671;-74
2023/04/01 07:51:36;;;;;;;3.50;0.90;;;;;;;12.05;91.08;98950.23;105701;1258;61227;-72
2023/04/01 07:54:12;;;;;;;2.10;0.90;;;;;;;12.11;90.79;98949.33;105671;1254;61220;-73
2023/04/01 07:56:58;;;;;;;2.70;0.70;;;;;;;12.13;90.08;98952.86;105736;1253;74701;-73
2023/04/01 07:59:35;;;;;;;3.00;0.70;;;;;;;12.16;90.32;98952.64;105686;1252;70064;-70
2023/04/01 08:02:22;;;;;;;5.10;1.00;;;;;;;12.20;89.66;98956.27;105722;1257;71556;-69
2023/04/01 08:05:08;;;;;;;2.10;0.60;;;;;;;12.26;89.82;98959.05;105698;1253;61782;-70
2023/04/01 08:08:10;;;;;;;2.80;0.70;;;;;;;12.35;89.63;98959.11;105670;1254;61226;-71
2023/04/01 08:10:44;;;;;;;2.30;0.70;;;;;;;12.49;89.20;98962.42;105778;1258;72496;-70
2023/04/01 08:13:13;;;;;;;3.80;0.90;;;;;;;12.59;89.41;98967.46;105698;1254;69843;-70
2023/04/01 08:15:40;;;;;;;2.80;0.90;;;;;;;12.66;88.71;98966.21;105654;1253;72419;-71
2023/04/01 08:18:27;;;;;;;1.80;0.50;;;;;;;12.70;88.06;98972.04;105743;1254;61284;-72
2023/04/01 08:21:02;;;;;;;3.30;0.80;;;;;;;12.70;87.41;98971.10;105743;1253;61304;-71
2023/04/01 08:23:46;;;;;;;1.20;0.50;;;;;;;12.74;87.15;98972.36;105667;1253;74955;-70
2023/04/01 08:26:18;;;;;;;3.20;0.90;;;;;;;12.83;86.90;98972.66;105725;1254;70905;-72
2023/04/01 08:28:55;;;;;;;2.70;0.70;;;;;;;12.87;86.28;98977.55;105591;1260;72527;-71
2023/04/01 08:31:44;;;;;;;1.90;0.60;;;;;;;12.91;86.19;98980.31;105717;1254;61292;-70
2023/04/01 08:34:25;;;;;;;2.40;0.70;;;;;;;12.95;85.80;98982.20;105827;1254;61350;-70
2023/04/01 08:37:04;;;;;;;1.70;0.60;;;;;;;12.99;85.59;98984.13;105773;1253;73930;-69
2023/04/01 08:39:36;;;;;;;1.80;0.70;;;;;;;13.05;85.47;98984.55;105789;1254;69944;-69
2023/04/01 08:42:45;;;;;;;3.10;0.70;;;;;;;13.18;85.58;98986.90;105688;1257;71571;-73
2023/04/01 08:45:36;;;;;;;2.00;0.60;;;;;;;13.31;84.58;98985.27;105821;1254;61865;-71
2023/04/01 08:48:28;;;;;;;1.40;0.50;;;;;;;13.37;83.43;98993.90;105774;1253;61302;-71
2023/04/01 08:51:32;;;;;;;3.50;1.00;;;;;;;13.48;82.13;98987.73;105693;1257;73459;-70
2023/04/01 08:54:22;;;;;;;1.60;0.50;;;;;;;13.65;82.66;98986.70;105759;1253;70918;-73
2023/04/01 08:57:08;;;;;;;2.00;0.60;;;;;;;13.80;81.44;98992.08;105703;1254;72695;-70
2023/04/01 08:59:54;;;;;;;2.50;0.70;;;;;;;13.93;80.91;98994.64;105852;1257;61721;-70
2023/04/01 09:02:45;;;;;;;1.80;0.60;;;;;;;14.07;79.74;98995.55;105676;1257;61482;-73
2023/04/01 09:05:40;;;;;;;2.30;0.90;;;;;;;14.30;80.36;98993.02;105676;1257;73569;-70
2023/04/01 09:08:34;;;;;;;3.10;0.70;;;;;;;14.46;79.15;98993.50;105680;1252;70743;-74
2023/04/01 09:11:28;;;;;;;2.60;1.10;;;;;;;14.53;78.53;98994.94;105685;1257;72730;-73
2023/04/01 09:14:17;;;;;;;2.40;1.10;;;;;;;14.55;77.27;98998.15;105661;1253;62099;-71
2023/04/01 09:17:01;;;;;;;1.80;0.70;;;;;;;14.48;76.15;98998.38;105774;1257;61240;-69
2023/04/01 09:19:34;;;;;;;1.80;0.50;;;;;;;14.42;76.06;99000.47;105825;1252;73472;-73
2023/04/01 09:22:17;;;;;;;1.40;0.40;;;;;;;14.35;75.61;99004.20;105659;1257;69725;-69
2023/04/01 09:25:23;;;;;;;1.70;0.40;;;;;;;14.35;75.46;99009.95;105750;1253;71312;-70
2023/04/01 09:28:14;;;;;;;1.30;0.30;;;;;;;14.33;74.34;99011.21;105382;1257;62339;-69
2023/04/01 09:30:47;;;;;;;3.20;0.50;;;;;;;14.42;75.39;99007.52;105763;1254;61267;-70
2023/04/01 09:33:42;;;;;;;1.80;0.60;;;;;;;14.50;75.31;99008.60;105667;1252;73710;-69
2023/04/01 09:36:20;;;;;;;1.40;0.50;;;;;;;14.54;74.55;99017.39;105716;1254;70101;-70
2023/04/01 09:39:03;;;;;;;1.60;0.50;;;;;;;14.64;74.65;99021.73;105646;1253;72735;-71
2023/04/01 09:41:39;;;;;;;1.80;0.50;;;;;;;14.66;74.07;99020.16;105681;1253;61245;-72
2023/04/01 09:44:18;;;;;;;1.80;0.40;;;;;;;14.74;73.88;99022.15;105688;1257;61261;-70
2023/04/01 09:46:57;;;;;;;2.30;0.40;;;;;;;14.76;71.70;99026.70;105633;1254;73557;-70
2023/04/01 09:49:46;;;;;;;1.00;0.20;;;;;;;14.83;72.04;99025.80;105679;1252;71314;-69
2023/04/01 09:52:37;;;;;;;1.70;0.40;;;;;;;14.97;72.21;99029.82;105683;1253;72389;-72
2023/04/01 09:55:35;;;;;;;0.80;0.30;;;;;;;15.07;70.92;99033.91;105774;1254;61234;-74
2023/04/01 09:58:20;;;;;;;1.50;0.50;;;;;;;15.20;71.32;99032.44;105852;1253;61284;-73
2023/04/01 10:01:05;;;;;;;0.80;0.20;;;;;;;15.38;72.09;99031.71;105825;1254;73156;-70
2023/04/01 10:03:37;;;;;;;1.20;0.30;;;;;;;15.32;69.28;99038.95;105755;1257;71203;-69
2023/04/01 10:06:50;;;;;;;1.10;0.30;;;;;;;15.20;69.47;99040.13;105708;1253;72929;-71
2023/04/01 10:09:52;;;;;;;0.80;0.30;;;;;;;14.88;68.94;99046.60;105864;1254;61643;-69
2023/04/01 10:12:58;;;;;;;1.60;0.30;;;;;;;14.63;70.33;99053.36;105736;1253;61782;-70
2023/04/01 10:15:45;;;;;;;1.30;0.30;;;;;;;14.42;71.36;99051.48;105917;1255;74462;-70
2023/04/01 10:18:14;;;;;;;1.80;0.30;;;;;;;14.19;71.82;99051.98;106003;1257;70060;-68
2023/04/01 10:21:00;;;;;;;1.00;0.30;;;;;;;13.99;72.55;99052.45;106048;1256;72033;-74
2023/04/01 10:23:32;;;;;;;0.80;0.30;;;;;;;13.74;73.42;99054.11;105768;1254;62170;-71
2023/04/01 10:26:23;;;;;;;1.30;0.30;;;;;;;13.55;74.42;99059.57;105860;1257;61340;-76
2023/04/01 10:29:15;;;;;;;1.10;0.40;;;;;;;13.32;76.54;99057.53;105784;1256;73142;-73
2023/04/01 10:32:07;;;;;;;0.90;0.30;;;;;;;13.19;78.25;99062.71;105817;1257;70877;-76
2023/04/01 10:35:11;;;;;;;0.90;0.40;;;;;;;13.07;79.08;99060.95;105911;1257;71249;-75
2023/04/01 10:38:15;;;;;;;1.20;0.40;;;;;;;13.01;79.92;99061.73;105905;1256;61205;-75
2023/04/01 10:41:16;;;;;;;2.00;0.30;;;;;;;13.04;80.22;99061.19;105878;1254;61247;-74
2023/04/01 10:44:11;;;;;;;1.20;0.50;;;;;;;13.07;81.02;99061.96;105873;1257;74028;-74
2023/04/01 10:47:15;;;;;;;1.90;0.50;;;;;;;13.18;81.02;99061.90;105754;1253;70960;-74
2023/04/01 10:50:06;;;;;;;2.70;0.40;;;;;;;13.31;80.43;99067.67;105827;1257;72697;-73
2023/04/01 10:52:51;;;;;;;1.80;0.40;;;;;;;13.37;78.82;99065.81;105819;1254;61549;-73
2023/04/01 10:55:45;;;;;;;2.10;0.40;;;;;;;13.50;79.12;99066.40;105807;1257;60310;-74
2023/04/01 10:58:42;;;;;;;3.10;0.70;;;;;;;13.64;79.76;99069.98;105711;1257;72862;-73
2023/04/01 11:02:07;;;;;;;1.40;0.40;;;;;;;13.78;79.23;99072.04;105703;1257;69278;-74
2023/04/01 11:05:19;;;;;;;1.20;0.20;;;;;;;13.96;77.36;99072.92;105808;1253;72809;-74
2023/04/01 11:07:52;;;;;;;1.40;0.40;;;;;;;13.99;76.50;99074.96;105354;1260;61380;-74
2023/04/01 11:11:11;;;;;;;0.90;0.30;;;;;;;13.96;76.38;99078.16;105339;1260;61690;-74
2023/04/01 11:14:04;;;;;;;1.50;0.50;;;;;;;13.95;77.39;99083.02;105772;1257;73485;-74
2023/04/01 11:17:09;;;;;;;1.70;0.40;;;;;;;13.88;77.72;99088.48;105875;1253;70143;-73
2023/04/01 11:20:13;;;;;;;0.60;0.20;;;;;;;13.74;76.25;99089.21;105839;1257;72428;-73
2023/04/01 11:22:52;;;;;;;0.60;0.20;;;;;;;13.58;75.64;99093.95;105782;1254;62058;-74
2023/04/01 11:25:25;;;;;;;2.20;0.30;;;;;;;13.48;76.31;99099.66;106009;1253;61172;-75
2023/04/01 11:28:15;;;;;;;2.30;1.00;;;;;;;13.42;77.65;99099.14;106001;1255;73386;-74
2023/04/01 11:30:45;;;;;;;2.40;1.10;;;;;;;13.33;78.60;99105.77;105774;1254;70083;-74
2023/04/01 11:33:26;;;;;;;2.70;1.00;;;;;;;13.26;78.88;99104.83;105763;1253;72442;-73
2023/04/01 11:36:23;;;;;;;1.70;0.70;;;;;;;13.16;79.87;99111.79;105720;1254;61267;-76
2023/04/01 11:39:09;;;;;;;1.60;0.30;;;;;;;13.08;81.63;99111.51;105827;1254;61269;-75
2023/04/01 11:41:52;;;;;;;2.30;0.70;;;;;;;13.01;82.93;99111.98;105731;1253;73224;-73
2023/04/01 11:44:23;;;;;;;1.80;0.90;;;;;;;12.96;83.80;99112.31;105870;1256;70327;-76
2023/04/01 11:47:27;;;;;;;1.40;0.60;;;;;;;12.91;84.44;99118.34;105623;1253;70453;-76
2023/04/01 11:50:18;;;;;;;1.30;0.50;;;;;;;12.93;85.27;99121.67;105691;1254;61766;-76
2023/04/01 11:53:05;;;;;;;1.90;0.50;;;;;;;13.03;85.53;99124.95;105830;1257;61343;-76
2023/04/01 11:55:56;;;;;;;1.90;0.50;;;;;;;13.21;85.65;99122.61;105801;1253;73873;-77
2023/04/01 11:58:44;;;;;;;1.60;0.50;;;;;;;13.42;85.16;99126.65;105710;1256;71186;-73
2023/04/01 12:01:20;;;;;;;1.50;0.50;;;;;;;13.69;84.36;99128.01;105783;1255;73544;-74
2023/04/01 12:03:46;;;;;;;1.90;0.60;;;;;;;13.93;82.93;99132.35;105651;1257;61626;-74
2023/04/01 12:06:25;;;;;;;1.70;0.50;;;;;;;14.14;82.00;99131.77;105570;1254;61306;-77
2023/04/01 12:09:11;;;;;;;1.70;0.50;;;;;;;14.38;80.94;99135.00;105724;1254;73982;-76
2023/04/01 12:11:41;;;;;;;2.90;0.60;;;;;;;14.62;79.75;99138.26;105771;1253;70988;-76
2023/04/01 12:14:27;;;;;;;1.30;0.50;;;;;;;14.84;80.05;99141.24;105930;1253;71218;-74
2023/04/01 12:17:05;;;;;;;1.00;0.50;;;;;;;15.03;78.35;99146.38;105647;1253;61381;-74
2023/04/01 12:19:53;;;;;;;1.10;0.40;;;;;;;15.17;77.06;99150.49;105921;1253;61333;-74